Fordyce, Nebraska
Current Conditions -  °F | °C
As of 8:35 AM on Friday 28 Nov 2014 (Local Time) from KYKN Reporting Station
Clear Clear  
Wind Chill: 25°   Ceiling: Unl
Heat Index: 25°   Visibility: 10mi
Dew Point: 19°   Wind: 3mph
Humidity: 80%   Direction: 80°E
Pressure: 29.8"   Gusts: NA
Location:  42.7°N, 97.36°W
Report Text: KYKN 281435Z AUTO 08003KT 10SM CLR M04/M07 A2980 RMK AO1
Loading
Personal Weather Stations






























Interactive Weather Map New forecast layout! Learn more

10-Day Weather Forecast

Advertisements
Track Severe Weather on mobile